CheckWX is a tool to help pilots better visualize weather data.  It is not intended as a substitute for an official pre-flight weather briefing.

17:09:15 UTC

KLHM METAR
Lincoln Regional / Karl Harder Field Airport
Lincoln, California, USA
Current

34 mins ago

KLHM 211635Z AUTO 19004KT 10SM CLR 23/12 A2991 RMK AO1
Observed
Jul-21 @ 16:35 UTC
Wind
  • 190° at 4 KTS
Visibility
10 SM
Flight Rules
VFR
Cloud Levels
  • Clear skies
Temperature
23°C / 73°F
Dewpoint
12°C / 54°F
Humidity
50%
Altimeter
29.91" Hg
Pressure
1012.92 hPa
Previous

54 mins ago

KLHM 211615Z AUTO 19006KT 10SM CLR 22/12 A2991 RMK AO1
Observed
Jul-21 @ 16:15 UTC
Wind
  • 190° at 6 KTS
Visibility
10 SM
Flight Rules
VFR
Cloud Levels
  • Clear skies
Temperature
22°C / 72°F
Dewpoint
12°C / 54°F
Humidity
53%
Altimeter
29.91" Hg
Pressure
1012.92 hPa
Previous

1 hour ago

KLHM 211555Z AUTO 21006KT 10SM CLR 21/12 A2990 RMK AO1
Observed
Jul-21 @ 15:55 UTC
Wind
  • 210° at 6 KTS
Visibility
10 SM
Flight Rules
VFR
Cloud Levels
  • Clear skies
Temperature
21°C / 70°F
Dewpoint
12°C / 54°F
Humidity
57%
Altimeter
29.9" Hg
Pressure
1012.52 hPa